Lyme, New Hampshire
Current Conditions -  °F | °C
As of 9:53 PM on Saturday 25 Oct 2014 (Local Time) from KLEB Reporting Station
Scattered Clouds Scattered Clouds  
Wind Chill: 52°   Ceiling: Unl
Heat Index: 52°   Visibility: 10mi
Dew Point: 46°   Wind: 7mph
Humidity: 80%   Direction: 190°S
Pressure: 29.48"   Gusts: NA
Location:  43.81°N, 72.16°W
Report Text: KLEB 260153Z 19006KT 10SM FEW050 SCT110 11/08 A2948 RMK AO2 RAE06 SLP984 P0000 T01110078
Loading
Personal Weather Stations






























Interactive Weather Map
Tropical Storm Tracking
New forecast layout! Learn more

10-Day Weather Forecast

Advertisements
Track Severe Weather on mobile